Time;durP1;ratioP1;P1;durP2;ratioP2;P2;SDS_P1;SDS_P2;PMS_P1;PMS_P2;Temp;Humidity;BMP_temperature;BMP_pressure;BME280_temperature;BME280_humidity;BME280_pressure;Samples;Min_cycle;Max_cycle;Signal;HPM_P1;HPM_P2
2022/04/20 00:00:35;;;;;;;;;;;20.30;33.00;;;;;;5026117;28;19926;-50
2022/04/20 00:03:02;;;;;;;;;;;20.30;33.10;;;;;;5039818;28;19932;-51
2022/04/20 00:05:32;;;;;;;;;;;20.30;33.10;;;;;;5027708;28;19968;-48
2022/04/20 00:08:00;;;;;;;;;;;20.30;33.10;;;;;;5037017;28;19935;-48
2022/04/20 00:10:27;;;;;;;;;;;20.30;33.10;;;;;;5042277;28;19925;-47
2022/04/20 00:12:54;;;;;;;;;;;20.30;33.10;;;;;;5039496;28;20012;-49
2022/04/20 00:15:20;;;;;;;;;;;20.30;33.10;;;;;;5042926;28;19925;-50
2022/04/20 00:17:47;;;;;;;;;;;20.30;33.20;;;;;;5043580;28;19932;-50
2022/04/20 00:20:15;;;;;;;;;;;20.30;33.10;;;;;;5040248;28;19960;-53
2022/04/20 00:22:42;;;;;;;;;;;20.30;33.10;;;;;;5037963;28;19937;-56
2022/04/20 00:25:13;;;;;;;;;;;20.30;33.20;;;;;;5025110;28;19925;-47
2022/04/20 00:27:40;;;;;;;;;;;20.30;33.20;;;;;;5041073;28;19929;-50
2022/04/20 00:30:08;;;;;;;;;;;20.30;33.20;;;;;;5040777;28;19935;-53
2022/04/20 00:32:35;;;;;;;;;;;20.30;33.20;;;;;;5025851;28;19931;-52
2022/04/20 00:35:01;;;;;;;;;;;20.30;33.20;;;;;;5038711;28;19925;-52
2022/04/20 00:37:29;;;;;;;;;;;20.30;33.20;;;;;;5019565;28;19955;-52
2022/04/20 00:39:55;;;;;;;;;;;20.30;33.20;;;;;;5039522;28;19927;-49
2022/04/20 00:42:23;;;;;;;;;;;20.30;33.20;;;;;;5044845;28;19929;-50
2022/04/20 00:44:50;;;;;;;;;;;20.30;33.20;;;;;;5039198;28;20083;-52
2022/04/20 00:47:20;;;;;;;;;;;20.30;33.20;;;;;;5035021;28;19979;-53
2022/04/20 00:49:47;;;;;;;;;;;20.30;33.20;;;;;;5042901;28;19952;-53
2022/04/20 00:52:15;;;;;;;;;;;20.30;33.30;;;;;;5027538;28;20016;-50
2022/04/20 00:54:42;;;;;;;;;;;20.30;33.20;;;;;;5043825;28;19939;-53
2022/04/20 00:57:08;;;;;;;;;;;20.30;33.30;;;;;;5036244;28;19931;-51
2022/04/20 00:59:37;;;;;;;;;;;20.30;33.30;;;;;;5025987;28;19929;-55
2022/04/20 01:02:04;;;;;;;;;;;20.30;33.30;;;;;;5032397;28;19929;-53
2022/04/20 01:04:31;;;;;;;;;;;20.30;33.30;;;;;;5022937;28;19952;-56
2022/04/20 01:06:59;;;;;;;;;;;20.30;33.30;;;;;;5034232;28;20000;-50
2022/04/20 01:09:26;;;;;;;;;;;20.30;33.30;;;;;;5035675;28;19932;-53
2022/04/20 01:11:52;;;;;;;;;;;20.30;33.30;;;;;;5031581;28;19936;-51
2022/04/20 01:14:19;;;;;;;;;;;20.30;33.30;;;;;;5020404;28;20465;-51
2022/04/20 01:16:48;;;;;;;;;;;20.30;33.30;;;;;;5043471;28;19933;-52
2022/04/20 01:19:15;;;;;;;;;;;20.30;33.40;;;;;;5019664;28;19936;-48
2022/04/20 01:21:43;;;;;;;;;;;20.30;33.40;;;;;;5024199;28;19975;-53
2022/04/20 01:24:11;;;;;;;;;;;20.30;33.30;;;;;;5035523;28;19925;-53
2022/04/20 01:26:38;;;;;;;;;;;20.30;33.40;;;;;;5040217;28;19972;-53
2022/04/20 01:29:04;;;;;;;;;;;20.30;33.40;;;;;;5039386;28;19925;-52
2022/04/20 01:31:31;;;;;;;;;;;20.30;33.40;;;;;;5037910;28;20019;-53
2022/04/20 01:33:58;;;;;;;;;;;20.30;33.40;;;;;;5040141;28;19929;-48
2022/04/20 01:36:25;;;;;;;;;;;20.30;33.40;;;;;;5027555;28;19932;-50
2022/04/20 01:38:53;;;;;;;;;;;20.30;33.40;;;;;;5037274;28;19968;-50
2022/04/20 01:41:20;;;;;;;;;;;20.30;33.40;;;;;;5043358;28;20029;-54
2022/04/20 01:43:47;;;;;;;;;;;20.30;33.50;;;;;;5046569;28;19932;-50
2022/04/20 01:46:15;;;;;;;;;;;20.30;33.40;;;;;;5036640;28;20011;-53
2022/04/20 01:48:42;;;;;;;;;;;20.30;33.40;;;;;;5034146;28;19967;-51
2022/04/20 01:53:54;;;;;;;;;;;20.30;33.40;;;;;;5018775;28;19956;-53
2022/04/20 01:56:21;;;;;;;;;;;20.30;34.00;;;;;;5023142;28;19964;-53
2022/04/20 01:58:48;;;;;;;;;;;20.30;33.40;;;;;;5038067;28;20328;-52
2022/04/20 02:03:59;;;;;;;;;;;20.30;33.50;;;;;;5024772;28;19936;-53
2022/04/20 02:06:26;;;;;;;;;;;20.30;33.50;;;;;;5026042;28;19929;-49
2022/04/20 02:08:53;;;;;;;;;;;20.30;33.50;;;;;;5026805;28;20540;-51
2022/04/20 02:11:21;;;;;;;;;;;20.30;33.50;;;;;;5039616;28;20714;-50
2022/04/20 02:13:48;;;;;;;;;;;20.30;33.50;;;;;;5038053;28;19929;-53
2022/04/20 02:16:14;;;;;;;;;;;20.30;33.50;;;;;;5040400;28;19996;-50
2022/04/20 02:18:41;;;;;;;;;;;20.30;33.50;;;;;;5032798;28;19956;-50
2022/04/20 02:21:08;;;;;;;;;;;20.30;33.50;;;;;;5042755;28;19935;-51
2022/04/20 02:23:35;;;;;;;;;;;20.30;33.50;;;;;;5019076;28;20789;-51
2022/04/20 02:26:02;;;;;;;;;;;20.30;33.50;;;;;;5019133;28;19933;-48
2022/04/20 02:28:30;;;;;;;;;;;20.30;33.50;;;;;;5039407;28;19991;-54
2022/04/20 02:30:57;;;;;;;;;;;20.30;33.50;;;;;;5039181;28;20512;-54
2022/04/20 02:33:24;;;;;;;;;;;20.30;33.50;;;;;;5017258;28;19956;-51
2022/04/20 02:35:50;;;;;;;;;;;20.30;33.50;;;;;;5046050;28;19940;-52
2022/04/20 02:38:17;;;;;;;;;;;20.30;33.50;;;;;;5027209;28;19937;-50
2022/04/20 02:40:44;;;;;;;;;;;20.30;33.50;;;;;;5031422;28;19933;-52
2022/04/20 02:43:10;;;;;;;;;;;20.30;33.60;;;;;;5037330;28;20029;-49
2022/04/20 02:45:39;;;;;;;;;;;20.30;33.50;;;;;;5046252;28;19975;-48
2022/04/20 02:48:06;;;;;;;;;;;20.30;33.60;;;;;;5040957;28;20018;-52
2022/04/20 02:50:33;;;;;;;;;;;20.30;33.60;;;;;;5039580;28;19933;-52
2022/04/20 02:53:00;;;;;;;;;;;20.30;33.60;;;;;;5042310;28;20386;-50
2022/04/20 02:55:26;;;;;;;;;;;20.30;33.60;;;;;;5035058;28;19936;-51
2022/04/20 02:57:53;;;;;;;;;;;20.30;33.60;;;;;;5018270;28;20034;-47
2022/04/20 03:00:20;;;;;;;;;;;20.30;33.60;;;;;;5044956;28;19929;-53
2022/04/20 03:02:48;;;;;;;;;;;20.30;33.60;;;;;;5049843;28;20198;-57
2022/04/20 03:05:14;;;;;;;;;;;20.30;33.60;;;;;;5042143;28;20023;-50
2022/04/20 03:07:41;;;;;;;;;;;20.30;33.60;;;;;;5033896;28;19925;-47
2022/04/20 03:10:09;;;;;;;;;;;20.30;33.60;;;;;;5048113;28;20369;-51
2022/04/20 03:12:36;;;;;;;;;;;20.30;33.60;;;;;;5039418;28;19929;-48
2022/04/20 03:15:03;;;;;;;;;;;20.30;33.70;;;;;;5041796;28;19957;-51
2022/04/20 03:17:30;;;;;;;;;;;20.40;33.80;;;;;;5045993;28;19986;-50
2022/04/20 03:19:58;;;;;;;;;;;20.30;33.60;;;;;;5034394;28;20003;-50
2022/04/20 03:22:25;;;;;;;;;;;20.30;33.70;;;;;;5022439;28;19929;-51
2022/04/20 03:24:52;;;;;;;;;;;20.30;33.70;;;;;;5047234;28;20079;-53
2022/04/20 03:27:18;;;;;;;;;;;20.30;33.70;;;;;;5043224;28;19928;-50
2022/04/20 03:29:45;;;;;;;;;;;20.30;33.70;;;;;;5024038;28;20000;-49
2022/04/20 03:32:12;;;;;;;;;;;20.30;34.10;;;;;;5035817;28;19929;-53
2022/04/20 03:34:40;;;;;;;;;;;20.30;33.70;;;;;;5038349;28;22481;-50
2022/04/20 03:37:08;;;;;;;;;;;20.30;33.70;;;;;;5021769;28;19925;-55
2022/04/20 03:39:35;;;;;;;;;;;20.30;33.70;;;;;;5024092;28;19957;-50
2022/04/20 03:42:02;;;;;;;;;;;20.30;33.70;;;;;;5033029;28;19936;-52
2022/04/20 03:44:28;;;;;;;;;;;20.30;33.70;;;;;;5022976;28;19979;-50
2022/04/20 03:46:55;;;;;;;;;;;20.30;33.70;;;;;;5031641;28;19924;-53
2022/04/20 03:49:22;;;;;;;;;;;20.30;33.70;;;;;;5053145;28;19932;-56
2022/04/20 03:51:48;;;;;;;;;;;20.30;33.70;;;;;;5030196;28;19939;-53
2022/04/20 03:54:16;;;;;;;;;;;20.30;33.70;;;;;;5039178;28;20378;-50
2022/04/20 03:59:27;;;;;;;;;;;20.30;33.80;;;;;;5043531;28;19932;-52
2022/04/20 04:01:54;;;;;;;;;;;20.30;33.80;;;;;;5039038;28;19967;-51
2022/04/20 04:04:21;;;;;;;;;;;20.30;33.70;;;;;;5029250;28;19932;-54
2022/04/20 04:06:48;;;;;;;;;;;20.30;33.70;;;;;;5044894;28;19990;-52
2022/04/20 04:09:15;;;;;;;;;;;20.30;33.80;;;;;;5022478;28;19937;-51
2022/04/20 04:11:43;;;;;;;;;;;20.30;33.80;;;;;;5037353;28;19925;-51
2022/04/20 04:14:10;;;;;;;;;;;20.30;33.80;;;;;;5039775;28;19925;-51
2022/04/20 04:16:37;;;;;;;;;;;20.30;33.80;;;;;;5042314;28;19925;-49
2022/04/20 04:19:04;;;;;;;;;;;20.30;33.80;;;;;;5030541;28;20498;-52
2022/04/20 04:21:31;;;;;;;;;;;20.30;33.80;;;;;;5029594;28;20291;-53
2022/04/20 04:23:58;;;;;;;;;;;20.30;33.80;;;;;;5050606;28;19931;-51
2022/04/20 04:26:27;;;;;;;;;;;20.30;33.80;;;;;;5030090;28;19954;-46
2022/04/20 04:28:56;;;;;;;;;;;20.30;33.80;;;;;;5045195;28;20027;-50
2022/04/20 04:31:23;;;;;;;;;;;20.30;33.80;;;;;;5023462;28;20004;-50
2022/04/20 04:33:49;;;;;;;;;;;20.30;33.80;;;;;;5046136;28;19928;-52
2022/04/20 04:36:16;;;;;;;;;;;20.30;33.80;;;;;;5050493;28;19964;-47
2022/04/20 04:38:43;;;;;;;;;;;20.30;33.80;;;;;;5023498;28;19983;-49
2022/04/20 04:41:09;;;;;;;;;;;20.30;33.80;;;;;;5043825;28;19928;-52
2022/04/20 04:43:36;;;;;;;;;;;20.30;33.80;;;;;;5046641;28;19968;-55
2022/04/20 04:48:49;;;;;;;;;;;20.30;33.80;;;;;;5043456;28;19924;-47
2022/04/20 04:51:16;;;;;;;;;;;20.30;33.90;;;;;;5024765;28;19929;-52
2022/04/20 04:53:44;;;;;;;;;;;20.30;33.80;;;;;;5027783;28;20409;-52
2022/04/20 04:56:10;;;;;;;;;;;20.30;33.80;;;;;;5052605;28;19932;-50
2022/04/20 04:58:37;;;;;;;;;;;20.30;33.80;;;;;;5032490;28;20013;-52
2022/04/20 05:01:05;;;;;;;;;;;20.30;33.80;;;;;;5025502;28;20012;-52
2022/04/20 05:03:32;;;;;;;;;;;20.30;33.90;;;;;;5042476;28;20353;-54
2022/04/20 05:05:59;;;;;;;;;;;20.30;33.90;;;;;;5029139;28;19955;-51
2022/04/20 05:08:26;;;;;;;;;;;20.30;33.80;;;;;;5033211;28;20275;-52
2022/04/20 05:10:53;;;;;;;;;;;20.30;33.90;;;;;;5043691;28;19925;-49
2022/04/20 05:13:19;;;;;;;;;;;20.30;33.90;;;;;;5023548;28;19972;-50
2022/04/20 05:15:46;;;;;;;;;;;20.30;33.80;;;;;;5026155;28;20036;-52
2022/04/20 05:18:14;;;;;;;;;;;20.30;33.90;;;;;;5045808;28;19931;-50
2022/04/20 05:20:41;;;;;;;;;;;20.30;33.80;;;;;;5042166;28;19963;-52
2022/04/20 05:23:08;;;;;;;;;;;20.30;33.90;;;;;;5020029;28;19935;-54
2022/04/20 05:25:35;;;;;;;;;;;20.30;33.90;;;;;;5045641;28;19925;-54
2022/04/20 05:28:02;;;;;;;;;;;20.30;33.90;;;;;;5044755;28;19929;-54
2022/04/20 05:30:28;;;;;;;;;;;20.30;33.90;;;;;;5027976;28;20432;-50
2022/04/20 05:32:55;;;;;;;;;;;20.30;33.90;;;;;;5048401;28;20293;-53
2022/04/20 05:35:23;;;;;;;;;;;20.30;33.90;;;;;;5047739;28;19929;-53
2022/04/20 05:43:19;;;;;;;;;;;20.30;33.90;;;;;;5044552;28;19932;-53
2022/04/20 05:45:48;;;;;;;;;;;20.30;34.50;;;;;;5036191;28;19925;-53
2022/04/20 05:48:16;;;;;;;;;;;20.30;33.90;;;;;;5028919;28;19932;-51
2022/04/20 05:50:44;;;;;;;;;;;20.30;33.90;;;;;;5027810;28;19931;-53
2022/04/20 05:53:12;;;;;;;;;;;20.30;33.90;;;;;;5045635;28;19932;-49
2022/04/20 05:55:38;;;;;;;;;;;20.30;33.90;;;;;;5027440;28;19971;-52
2022/04/20 05:58:06;;;;;;;;;;;20.30;33.90;;;;;;5045340;28;20047;-49
2022/04/20 06:00:32;;;;;;;;;;;20.30;33.90;;;;;;5041665;28;20020;-56
2022/04/20 06:02:59;;;;;;;;;;;20.30;33.90;;;;;;5029580;28;20031;-50
2022/04/20 06:05:26;;;;;;;;;;;20.30;33.90;;;;;;5025314;28;20020;-52
2022/04/20 06:07:54;;;;;;;;;;;20.30;34.00;;;;;;5019778;28;19961;-47
2022/04/20 06:10:21;;;;;;;;;;;20.30;34.00;;;;;;5042232;28;20011;-54
2022/04/20 06:12:48;;;;;;;;;;;20.30;34.00;;;;;;5029414;28;19933;-48
2022/04/20 06:15:15;;;;;;;;;;;20.30;33.90;;;;;;5037216;28;20433;-51
2022/04/20 06:17:41;;;;;;;;;;;20.40;34.10;;;;;;5027301;28;20390;-52
2022/04/20 06:20:08;;;;;;;;;;;20.30;33.90;;;;;;5022041;28;19932;-56
2022/04/20 06:22:35;;;;;;;;;;;20.40;34.00;;;;;;5035640;28;20573;-57
2022/04/20 06:25:03;;;;;;;;;;;20.40;34.10;;;;;;5031322;28;19956;-51
2022/04/20 06:27:30;;;;;;;;;;;20.40;34.00;;;;;;5018994;28;19925;-53
2022/04/20 06:29:57;;;;;;;;;;;20.40;34.00;;;;;;5038146;28;20131;-53
2022/04/20 06:32:24;;;;;;;;;;;20.40;33.80;;;;;;5024524;28;20404;-59
2022/04/20 06:34:51;;;;;;;;;;;20.40;33.70;;;;;;5043769;28;19929;-52
2022/04/20 06:37:19;;;;;;;;;;;20.40;33.70;;;;;;5034166;28;20016;-54
2022/04/20 06:39:45;;;;;;;;;;;20.40;33.60;;;;;;5037418;28;20062;-53
2022/04/20 06:42:14;;;;;;;;;;;20.40;33.50;;;;;;5018958;28;19925;-55
2022/04/20 06:44:40;;;;;;;;;;;20.40;33.50;;;;;;5033416;28;20027;-56
2022/04/20 06:47:07;;;;;;;;;;;20.30;33.40;;;;;;5018415;28;20107;-57
2022/04/20 06:49:34;;;;;;;;;;;20.30;33.40;;;;;;5021721;28;19933;-58
2022/04/20 07:00:41;;;;;;;;;;;20.30;33.10;;;;;;4981964;28;20016;-58
2022/04/20 07:03:08;;;;;;;;;;;20.30;33.10;;;;;;4997288;28;19930;-54
2022/04/20 07:05:34;;;;;;;;;;;20.30;33.10;;;;;;4994046;28;20033;-58
2022/04/20 07:08:01;;;;;;;;;;;20.30;33.10;;;;;;5041731;28;19956;-54
2022/04/20 07:10:28;;;;;;;;;;;20.30;33.10;;;;;;5039711;28;19929;-54
2022/04/20 07:12:57;;;;;;;;;;;20.30;33.00;;;;;;5021404;28;19929;-56
2022/04/20 07:15:25;;;;;;;;;;;20.30;33.00;;;;;;5045508;28;19967;-53
2022/04/20 07:17:51;;;;;;;;;;;20.30;33.00;;;;;;5042387;28;19939;-53
2022/04/20 07:20:18;;;;;;;;;;;20.30;32.90;;;;;;5027995;28;20014;-54
2022/04/20 07:22:45;;;;;;;;;;;20.30;33.00;;;;;;5045272;28;19929;-53
2022/04/20 07:25:12;;;;;;;;;;;20.30;33.00;;;;;;5045163;28;20266;-57
2022/04/20 07:27:39;;;;;;;;;;;20.30;32.90;;;;;;5024977;28;20417;-56
2022/04/20 07:30:08;;;;;;;;;;;20.30;32.90;;;;;;5038716;28;19924;-56
2022/04/20 07:32:35;;;;;;;;;;;20.30;32.90;;;;;;5041763;28;19990;-50
2022/04/20 07:35:02;;;;;;;;;;;20.30;32.90;;;;;;5042654;28;19929;-56
2022/04/20 07:37:28;;;;;;;;;;;20.30;32.90;;;;;;5030426;28;19933;-52
2022/04/20 07:39:55;;;;;;;;;;;20.30;33.00;;;;;;5046634;28;19936;-53
2022/04/20 07:42:22;;;;;;;;;;;20.30;32.90;;;;;;5040242;28;19929;-53
2022/04/20 07:44:49;;;;;;;;;;;20.30;32.90;;;;;;5022670;28;20027;-51
2022/04/20 07:47:17;;;;;;;;;;;20.30;32.90;;;;;;5037597;28;19943;-57
2022/04/20 07:52:28;;;;;;;;;;;20.30;32.80;;;;;;5041749;28;19929;-57
2022/04/20 07:54:54;;;;;;;;;;;20.30;32.90;;;;;;5035737;28;20011;-54
2022/04/20 07:57:21;;;;;;;;;;;20.30;32.90;;;;;;5035969;28;19929;-54
2022/04/20 07:59:48;;;;;;;;;;;20.30;32.90;;;;;;5018358;28;19968;-57
2022/04/20 08:02:20;;;;;;;;;;;20.30;32.90;;;;;;5026207;28;19967;-53
2022/04/20 08:04:47;;;;;;;;;;;20.30;32.90;;;;;;5023811;28;19944;-56
2022/04/20 08:07:14;;;;;;;;;;;20.30;32.90;;;;;;5039092;28;19931;-56
2022/04/20 08:09:41;;;;;;;;;;;20.30;32.90;;;;;;5023138;28;19991;-56
2022/04/20 08:12:08;;;;;;;;;;;20.30;32.80;;;;;;5020337;28;20329;-56
2022/04/20 08:14:37;;;;;;;;;;;20.30;32.80;;;;;;5033235;28;20035;-58
2022/04/20 08:17:04;;;;;;;;;;;20.30;32.90;;;;;;5041495;28;20352;-57
2022/04/20 08:19:33;;;;;;;;;;;20.30;32.80;;;;;;5021711;28;20084;-54
2022/04/20 08:22:00;;;;;;;;;;;20.30;32.80;;;;;;5030978;28;19932;-57
2022/04/20 08:24:26;;;;;;;;;;;20.30;32.80;;;;;;5037263;28;19929;-57
2022/04/20 08:26:53;;;;;;;;;;;20.30;32.80;;;;;;5038111;28;19928;-58
2022/04/20 08:29:20;;;;;;;;;;;20.30;32.80;;;;;;5036376;28;19929;-58
2022/04/20 08:31:47;;;;;;;;;;;20.30;32.80;;;;;;5040398;28;19932;-58
2022/04/20 08:34:13;;;;;;;;;;;20.30;32.80;;;;;;5040742;28;20027;-57
2022/04/20 08:36:42;;;;;;;;;;;20.30;32.70;;;;;;5023192;28;20872;-58
2022/04/20 08:39:08;;;;;;;;;;;20.30;32.80;;;;;;5023951;28;19943;-57
2022/04/20 08:41:36;;;;;;;;;;;20.30;32.80;;;;;;5023641;28;19929;-58
2022/04/20 08:44:04;;;;;;;;;;;20.30;32.70;;;;;;5032650;28;20022;-57
2022/04/20 08:46:30;;;;;;;;;;;20.30;32.70;;;;;;5020848;28;19979;-53
2022/04/20 08:48:57;;;;;;;;;;;20.30;32.70;;;;;;5031767;28;19925;-53
2022/04/20 08:52:36;;;;;;;;;;;20.30;32.70;;;;;;5019384;28;19960;-56
2022/04/20 08:54:12;;;;;;;;;;;20.30;32.60;;;;;;5042017;28;19929;-56
2022/04/20 08:59:23;;;;;;;;;;;20.30;32.60;;;;;;5020199;28;19936;-49
2022/04/20 09:01:50;;;;;;;;;;;20.30;32.60;;;;;;5034907;28;19988;-54
2022/04/20 09:04:17;;;;;;;;;;;20.30;32.60;;;;;;5041879;28;20014;-55
2022/04/20 09:06:45;;;;;;;;;;;20.30;32.50;;;;;;5019808;28;19928;-57
2022/04/20 09:09:13;;;;;;;;;;;20.30;32.50;;;;;;5042028;28;19942;-52
2022/04/20 09:11:40;;;;;;;;;;;20.30;32.50;;;;;;5027291;28;19939;-53
2022/04/20 09:14:13;;;;;;;;;;;20.30;32.50;;;;;;5017450;28;19956;-50
2022/04/20 09:16:41;;;;;;;;;;;20.30;32.50;;;;;;5044072;28;20420;-57
2022/04/20 09:19:08;;;;;;;;;;;20.30;32.50;;;;;;5042710;28;19925;-52
2022/04/20 09:21:35;;;;;;;;;;;20.30;32.40;;;;;;5033880;28;19924;-57
2022/04/20 09:24:06;;;;;;;;;;;20.30;32.50;;;;;;5021601;28;19925;-54
2022/04/20 09:26:34;;;;;;;;;;;20.30;32.40;;;;;;5041045;28;20036;-53
2022/04/20 09:29:04;;;;;;;;;;;20.30;32.40;;;;;;5024506;28;20027;-53
2022/04/20 09:31:41;;;;;;;;;;;20.30;32.40;;;;;;5024290;28;20444;-51
2022/04/20 09:34:08;;;;;;;;;;;20.30;32.40;;;;;;5042140;28;20249;-52
2022/04/20 09:36:41;;;;;;;;;;;20.30;32.30;;;;;;5021934;28;19929;-55
2022/04/20 09:39:09;;;;;;;;;;;20.30;32.40;;;;;;5042385;28;19932;-53
2022/04/20 09:41:39;;;;;;;;;;;20.30;32.30;;;;;;5026895;28;19979;-54
2022/04/20 09:44:10;;;;;;;;;;;20.30;32.30;;;;;;5026766;28;19925;-55
2022/04/20 09:49:34;;;;;;;;;;;20.30;32.30;;;;;;5036495;28;19926;-55
2022/04/20 09:52:08;;;;;;;;;;;20.30;32.30;;;;;;5030306;28;19986;-55
2022/04/20 09:54:36;;;;;;;;;;;20.30;32.30;;;;;;5044422;28;20023;-54
2022/04/20 09:57:10;;;;;;;;;;;20.30;32.30;;;;;;5046342;28;19925;-52
2022/04/20 09:59:37;;;;;;;;;;;20.30;32.30;;;;;;5032227;28;19948;-50
2022/04/20 10:02:13;;;;;;;;;;;20.30;32.30;;;;;;5027733;28;19924;-56
2022/04/20 10:04:40;;;;;;;;;;;20.30;32.30;;;;;;5045130;28;19928;-54
2022/04/20 10:07:07;;;;;;;;;;;20.30;32.30;;;;;;5046562;28;19936;-50
2022/04/20 10:09:34;;;;;;;;;;;20.30;32.20;;;;;;5028228;28;20002;-52
2022/04/20 10:12:01;;;;;;;;;;;20.30;32.20;;;;;;5035877;28;20385;-54
2022/04/20 10:17:13;;;;;;;;;;;20.30;32.20;;;;;;5044727;28;20508;-54
2022/04/20 10:19:40;;;;;;;;;;;20.30;32.20;;;;;;5029995;28;20385;-57
2022/04/20 10:22:08;;;;;;;;;;;20.30;32.20;;;;;;5042105;28;20095;-58
2022/04/20 10:24:34;;;;;;;;;;;20.30;32.20;;;;;;5030814;28;20468;-54
2022/04/20 10:27:03;;;;;;;;;;;20.30;32.20;;;;;;5027197;28;19929;-54
2022/04/20 10:29:33;;;;;;;;;;;20.30;32.20;;;;;;5030094;28;20337;-56
2022/04/20 10:32:01;;;;;;;;;;;20.30;32.20;;;;;;5030114;28;19928;-55
2022/04/20 10:34:28;;;;;;;;;;;20.30;32.20;;;;;;5023472;28;20016;-57
2022/04/20 10:36:58;;;;;;;;;;;20.30;32.20;;;;;;5027933;28;19952;-53
2022/04/20 10:39:26;;;;;;;;;;;20.30;32.20;;;;;;5050855;28;20415;-58
2022/04/20 10:42:07;;;;;;;;;;;20.30;31.80;;;;;;5030653;28;19939;-54
2022/04/20 10:47:28;;;;;;;;;;;20.20;31.20;;;;;;5110410;27;841346;-58
2022/04/20 10:50:10;;;;;;;;;;;20.20;31.00;;;;;;5135931;27;19923;-57
2022/04/20 10:52:37;;;;;;;;;;;20.20;30.90;;;;;;5143428;27;19923;-54
2022/04/20 10:55:06;;;;;;;;;;;20.10;30.80;;;;;;5130526;27;19927;-54
2022/04/20 10:57:33;;;;;;;;;;;20.10;30.90;;;;;;5144856;27;19976;-55
2022/04/20 11:00:21;;;;;;;;;;;20.10;31.00;;;;;;5141583;27;19931;-55
2022/04/20 11:02:49;;;;;;;;;;;20.10;31.10;;;;;;5124619;27;19923;-50
2022/04/20 11:05:16;;;;;;;;;;;20.10;31.20;;;;;;5137460;27;20407;-54
2022/04/20 11:07:57;;;;;;;;;;;20.10;31.30;;;;;;5157293;27;20632;-51
2022/04/20 11:10:24;;;;;;;;;;;20.10;31.40;;;;;;5129189;27;20482;-48
2022/04/20 11:18:42;;;;;;;;;;;20.10;31.50;;;;;;5133862;27;19934;-51
2022/04/20 11:21:19;;;;;;;;;;;20.10;31.50;;;;;;5132110;27;20015;-51
2022/04/20 11:23:53;;;;;;;;;;;20.20;31.70;;;;;;5129740;27;19931;-48
2022/04/20 11:26:21;;;;;;;;;;;20.20;31.70;;;;;;5135210;27;20031;-47
2022/04/20 11:28:48;;;;;;;;;;;20.20;31.80;;;;;;5147018;27;20061;-54
2022/04/20 11:31:15;;;;;;;;;;;20.20;31.80;;;;;;5160803;27;19958;-58
2022/04/20 11:33:43;;;;;;;;;;;20.20;31.90;;;;;;5160213;27;19927;-45
2022/04/20 11:36:11;;;;;;;;;;;20.20;31.90;;;;;;5133010;27;20319;-44
2022/04/20 11:38:38;;;;;;;;;;;20.20;31.90;;;;;;5171523;27;20422;-48
2022/04/20 11:41:05;;;;;;;;;;;20.20;32.00;;;;;;5134857;27;20109;-48
2022/04/20 11:43:32;;;;;;;;;;;20.20;32.10;;;;;;5142021;27;20383;-49
2022/04/20 11:46:00;;;;;;;;;;;20.30;32.20;;;;;;5140405;27;19923;-46
2022/04/20 11:48:27;;;;;;;;;;;20.30;32.20;;;;;;5144391;27;20404;-45
2022/04/20 11:50:56;;;;;;;;;;;20.30;32.20;;;;;;5153665;27;20382;-44
2022/04/20 11:53:23;;;;;;;;;;;20.30;32.30;;;;;;5131280;27;20343;-47
2022/04/20 11:55:50;;;;;;;;;;;20.30;32.30;;;;;;5156067;27;19923;-45
2022/04/20 11:58:17;;;;;;;;;;;20.30;32.40;;;;;;5138708;27;19923;-51
2022/04/20 12:00:44;;;;;;;;;;;20.30;32.40;;;;;;5125048;27;19927;-48
2022/04/20 12:03:12;;;;;;;;;;;20.30;32.50;;;;;;5137214;27;19927;-46
2022/04/20 12:05:38;;;;;;;;;;;20.40;32.50;;;;;;5120117;27;19929;-50
2022/04/20 12:08:07;;;;;;;;;;;20.40;32.60;;;;;;5138392;27;19942;-49
2022/04/20 12:10:33;;;;;;;;;;;20.40;32.60;;;;;;5130951;27;19924;-49
2022/04/20 12:13:02;;;;;;;;;;;20.40;32.60;;;;;;5121794;27;20848;-49
2022/04/20 12:15:29;;;;;;;;;;;20.40;32.60;;;;;;5112210;27;19973;-53
2022/04/20 12:17:56;;;;;;;;;;;20.40;32.70;;;;;;5120173;27;20098;-51
2022/04/20 12:20:25;;;;;;;;;;;20.40;32.70;;;;;;5122148;27;19938;-49
2022/04/20 12:23:04;;;;;;;;;;;20.40;32.80;;;;;;5130049;27;19927;-48
2022/04/20 12:25:32;;;;;;;;;;;20.40;32.80;;;;;;5119431;27;19932;-51
2022/04/20 12:28:35;;;;;;;;;;;20.40;32.80;;;;;;5137519;27;19962;-51
2022/04/20 12:30:46;;;;;;;;;;;20.40;32.80;;;;;;5125875;27;19927;-53
2022/04/20 12:33:20;;;;;;;;;;;20.50;32.90;;;;;;5117663;27;19969;-52
2022/04/20 12:35:58;;;;;;;;;;;20.50;32.90;;;;;;5135681;27;19976;-47
2022/04/20 12:38:25;;;;;;;;;;;20.50;32.90;;;;;;5119545;27;19989;-47
2022/04/20 12:40:54;;;;;;;;;;;20.50;33.00;;;;;;5121551;27;20594;-49
2022/04/20 12:43:20;;;;;;;;;;;20.50;33.00;;;;;;5121458;27;19998;-53
2022/04/20 12:45:47;;;;;;;;;;;20.50;33.00;;;;;;5121462;27;20062;-51
2022/04/20 12:48:14;;;;;;;;;;;20.50;33.00;;;;;;5131384;27;19923;-50
2022/04/20 12:50:41;;;;;;;;;;;20.50;33.00;;;;;;5127866;27;20030;-50
2022/04/20 12:53:08;;;;;;;;;;;20.50;33.10;;;;;;5121533;27;19929;-49
2022/04/20 12:55:35;;;;;;;;;;;20.50;33.10;;;;;;5125267;27;20011;-48
2022/04/20 13:03:39;;;;;;;;;;;20.60;33.20;;;;;;5118543;27;19928;-52
2022/04/20 13:06:07;;;;;;;;;;;20.60;33.20;;;;;;5120226;27;19928;-53
2022/04/20 13:08:34;;;;;;;;;;;20.50;33.20;;;;;;5122073;27;19945;-50
2022/04/20 13:11:01;;;;;;;;;;;20.60;33.30;;;;;;5131221;27;19927;-50
2022/04/20 13:13:29;;;;;;;;;;;20.60;33.30;;;;;;5120500;27;20143;-52
2022/04/20 13:15:56;;;;;;;;;;;20.60;33.40;;;;;;5126404;27;20011;-50
2022/04/20 13:18:23;;;;;;;;;;;20.60;33.40;;;;;;5126916;27;19927;-51
2022/04/20 13:20:51;;;;;;;;;;;20.60;33.40;;;;;;5127274;27;19923;-52
2022/04/20 13:23:18;;;;;;;;;;;20.60;33.40;;;;;;5131846;27;19953;-49
2022/04/20 13:28:30;;;;;;;;;;;20.60;33.50;;;;;;5127778;27;19961;-50
2022/04/20 13:30:57;;;;;;;;;;;20.60;33.50;;;;;;5134135;27;20025;-50
2022/04/20 13:33:24;;;;;;;;;;;20.60;33.50;;;;;;5126883;27;20333;-49
2022/04/20 13:35:53;;;;;;;;;;;20.60;33.50;;;;;;5136295;27;19933;-52
2022/04/20 13:38:20;;;;;;;;;;;20.60;33.50;;;;;;5118802;27;19927;-50
2022/04/20 13:40:48;;;;;;;;;;;20.60;33.60;;;;;;5119353;27;19987;-46
2022/04/20 13:43:15;;;;;;;;;;;20.60;33.50;;;;;;5135869;27;19958;-51
2022/04/20 13:45:43;;;;;;;;;;;20.60;33.60;;;;;;5130265;27;20372;-47
2022/04/20 13:48:10;;;;;;;;;;;20.70;33.60;;;;;;5118897;27;20436;-47
2022/04/20 13:50:37;;;;;;;;;;;20.70;33.60;;;;;;5116390;27;20323;-47
2022/04/20 13:53:04;;;;;;;;;;;20.70;33.60;;;;;;5121746;27;19923;-48
2022/04/20 13:55:31;;;;;;;;;;;20.70;33.70;;;;;;5139118;27;19998;-48
2022/04/20 13:57:57;;;;;;;;;;;20.70;33.70;;;;;;5143608;27;19930;-47
2022/04/20 14:00:27;;;;;;;;;;;20.70;33.70;;;;;;5115469;27;19923;-53
2022/04/20 14:02:55;;;;;;;;;;;20.70;33.80;;;;;;5148562;27;19945;-50
2022/04/20 14:05:22;;;;;;;;;;;20.70;33.80;;;;;;5114293;27;20022;-50
2022/04/20 14:07:49;;;;;;;;;;;20.70;33.70;;;;;;5118335;27;20171;-51
2022/04/20 14:10:16;;;;;;;;;;;20.70;33.70;;;;;;5113097;27;19946;-55
2022/04/20 14:12:42;;;;;;;;;;;20.70;33.70;;;;;;5113450;27;20000;-51
2022/04/20 14:15:09;;;;;;;;;;;20.70;33.70;;;;;;5113257;27;20353;-51
2022/04/20 14:17:42;;;;;;;;;;;20.70;33.60;;;;;;5132370;27;19927;-57
2022/04/20 14:20:11;;;;;;;;;;;20.70;33.60;;;;;;5126298;27;19927;-54
2022/04/20 14:22:38;;;;;;;;;;;20.70;33.50;;;;;;5112562;27;20018;-55
2022/04/20 14:33:15;;;;;;;;;;;20.70;33.40;;;;;;5069926;27;19966;-57
2022/04/20 14:35:43;;;;;;;;;;;20.70;33.40;;;;;;5140177;27;19927;-54
2022/04/20 14:38:09;;;;;;;;;;;20.70;33.40;;;;;;5130827;27;19924;-55
2022/04/20 14:40:36;;;;;;;;;;;20.70;33.40;;;;;;5113075;27;19946;-53
2022/04/20 14:43:03;;;;;;;;;;;20.70;33.40;;;;;;5112402;27;19927;-56
2022/04/20 14:45:30;;;;;;;;;;;20.70;33.40;;;;;;5114787;28;20104;-51
2022/04/20 14:48:00;;;;;;;;;;;20.70;33.40;;;;;;5119724;27;19927;-53
2022/04/20 14:50:27;;;;;;;;;;;20.70;33.40;;;;;;5114900;27;19927;-56
2022/04/20 14:52:55;;;;;;;;;;;20.70;33.40;;;;;;5120327;27;19927;-53
2022/04/20 14:55:22;;;;;;;;;;;20.70;33.40;;;;;;5124578;28;19966;-53
2022/04/20 14:57:49;;;;;;;;;;;20.70;33.70;;;;;;5112187;28;19969;-49
2022/04/20 15:00:16;;;;;;;;;;;20.70;33.30;;;;;;5112966;28;20383;-53
2022/04/20 15:02:43;;;;;;;;;;;20.70;33.30;;;;;;5132978;27;20019;-54
2022/04/20 15:05:10;;;;;;;;;;;20.70;33.40;;;;;;5100069;28;19934;-54
2022/04/20 15:07:38;;;;;;;;;;;20.70;33.30;;;;;;5112030;28;19968;-54
2022/04/20 15:10:07;;;;;;;;;;;20.70;33.30;;;;;;5127264;27;19995;-55
2022/04/20 15:12:34;;;;;;;;;;;20.70;33.30;;;;;;5118451;27;20019;-55
2022/04/20 15:15:01;;;;;;;;;;;20.70;33.30;;;;;;5117967;27;20291;-52
2022/04/20 15:17:28;;;;;;;;;;;20.70;33.20;;;;;;5116678;27;19967;-55
2022/04/20 15:19:56;;;;;;;;;;;20.70;33.30;;;;;;5111718;28;19934;-56